sensor_id;sensor_type;location;lat;lon;timestamp;temperature;humidity
6841;DHT22;3458;53.678;14.080;2023-05-10T00:00:57;15.90;34.10
6841;DHT22;3458;53.678;14.080;2023-05-10T00:03:23;15.90;34.20
6841;DHT22;3458;53.678;14.080;2023-05-10T00:05:48;15.90;34.30
6841;DHT22;3458;53.678;14.080;2023-05-10T00:08:14;15.80;34.30
6841;DHT22;3458;53.678;14.080;2023-05-10T00:10:39;15.80;34.40
6841;DHT22;3458;53.678;14.080;2023-05-10T00:13:06;15.80;34.40
6841;DHT22;3458;53.678;14.080;2023-05-10T00:15:31;15.70;34.60
6841;DHT22;3458;53.678;14.080;2023-05-10T00:17:57;15.70;34.70
6841;DHT22;3458;53.678;14.080;2023-05-10T00:20:22;15.70;34.80
6841;DHT22;3458;53.678;14.080;2023-05-10T00:22:48;15.60;34.80
6841;DHT22;3458;53.678;14.080;2023-05-10T00:25:13;15.60;35.00
6841;DHT22;3458;53.678;14.080;2023-05-10T00:27:39;15.60;35.20
6841;DHT22;3458;53.678;14.080;2023-05-10T00:30:05;15.60;35.30
6841;DHT22;3458;53.678;14.080;2023-05-10T00:32:31;15.60;35.20
6841;DHT22;3458;53.678;14.080;2023-05-10T00:34:57;15.60;35.20
6841;DHT22;3458;53.678;14.080;2023-05-10T00:37:23;15.50;35.30
6841;DHT22;3458;53.678;14.080;2023-05-10T00:39:48;15.60;35.40
6841;DHT22;3458;53.678;14.080;2023-05-10T00:42:13;15.60;35.40
6841;DHT22;3458;53.678;14.080;2023-05-10T00:44:39;15.50;35.50
6841;DHT22;3458;53.678;14.080;2023-05-10T00:47:05;15.50;35.70
6841;DHT22;3458;53.678;14.080;2023-05-10T00:49:30;15.40;35.80
6841;DHT22;3458;53.678;14.080;2023-05-10T00:51:56;15.40;35.80
6841;DHT22;3458;53.678;14.080;2023-05-10T00:54:22;15.40;35.80
6841;DHT22;3458;53.678;14.080;2023-05-10T00:56:47;15.40;35.90
6841;DHT22;3458;53.678;14.080;2023-05-10T00:59:18;15.40;36.00
6841;DHT22;3458;53.678;14.080;2023-05-10T01:01:46;15.30;36.00
6841;DHT22;3458;53.678;14.080;2023-05-10T01:04:13;15.40;36.10
6841;DHT22;3458;53.678;14.080;2023-05-10T01:06:40;15.40;36.10
6841;DHT22;3458;53.678;14.080;2023-05-10T01:09:06;15.40;36.10
6841;DHT22;3458;53.678;14.080;2023-05-10T01:11:35;15.40;36.10
6841;DHT22;3458;53.678;14.080;2023-05-10T01:14:02;15.40;36.30
6841;DHT22;3458;53.678;14.080;2023-05-10T01:16:31;15.30;36.30
6841;DHT22;3458;53.678;14.080;2023-05-10T01:18:57;15.30;36.40
6841;DHT22;3458;53.678;14.080;2023-05-10T01:21:49;15.20;36.50
6841;DHT22;3458;53.678;14.080;2023-05-10T01:24:36;15.20;36.60
6841;DHT22;3458;53.678;14.080;2023-05-10T01:30:31;15.20;36.80
6841;DHT22;3458;53.678;14.080;2023-05-10T01:33:13;15.20;36.90
6841;DHT22;3458;53.678;14.080;2023-05-10T01:35:46;15.00;36.90
6841;DHT22;3458;53.678;14.080;2023-05-10T01:38:21;15.00;37.00
6841;DHT22;3458;53.678;14.080;2023-05-10T01:46:37;14.90;37.40
6841;DHT22;3458;53.678;14.080;2023-05-10T01:49:15;14.80;37.40
6841;DHT22;3458;53.678;14.080;2023-05-10T01:51:54;14.80;37.50
6841;DHT22;3458;53.678;14.080;2023-05-10T01:54:24;14.90;37.60
6841;DHT22;3458;53.678;14.080;2023-05-10T01:57:01;14.80;38.20
6841;DHT22;3458;53.678;14.080;2023-05-10T01:59:30;14.80;37.80
6841;DHT22;3458;53.678;14.080;2023-05-10T02:01:59;14.80;37.80
6841;DHT22;3458;53.678;14.080;2023-05-10T02:04:25;14.80;37.80
6841;DHT22;3458;53.678;14.080;2023-05-10T02:06:53;14.80;37.90
6841;DHT22;3458;53.678;14.080;2023-05-10T02:09:20;14.80;38.10
6841;DHT22;3458;53.678;14.080;2023-05-10T02:11:48;14.70;38.10
6841;DHT22;3458;53.678;14.080;2023-05-10T02:14:14;14.70;38.10
6841;DHT22;3458;53.678;14.080;2023-05-10T02:16:41;14.70;38.10
6841;DHT22;3458;53.678;14.080;2023-05-10T02:19:08;14.70;38.20
6841;DHT22;3458;53.678;14.080;2023-05-10T02:21:35;14.70;38.30
6841;DHT22;3458;53.678;14.080;2023-05-10T02:24:03;14.70;38.50
6841;DHT22;3458;53.678;14.080;2023-05-10T02:26:30;14.70;38.50
6841;DHT22;3458;53.678;14.080;2023-05-10T02:28:57;14.60;38.60
6841;DHT22;3458;53.678;14.080;2023-05-10T02:31:23;14.50;38.80
6841;DHT22;3458;53.678;14.080;2023-05-10T02:33:50;14.50;38.80
6841;DHT22;3458;53.678;14.080;2023-05-10T02:36:16;14.50;38.90
6841;DHT22;3458;53.678;14.080;2023-05-10T02:38:43;14.50;39.00
6841;DHT22;3458;53.678;14.080;2023-05-10T02:41:10;14.50;38.90
6841;DHT22;3458;53.678;14.080;2023-05-10T02:43:37;14.50;39.00
6841;DHT22;3458;53.678;14.080;2023-05-10T02:46:04;14.40;39.00
6841;DHT22;3458;53.678;14.080;2023-05-10T02:48:30;14.40;39.20
6841;DHT22;3458;53.678;14.080;2023-05-10T02:51:00;14.40;39.20
6841;DHT22;3458;53.678;14.080;2023-05-10T02:53:33;14.30;39.20
6841;DHT22;3458;53.678;14.080;2023-05-10T02:56:03;14.20;39.40
6841;DHT22;3458;53.678;14.080;2023-05-10T02:58:29;14.20;39.50
6841;DHT22;3458;53.678;14.080;2023-05-10T03:00:55;14.30;39.60
6841;DHT22;3458;53.678;14.080;2023-05-10T03:03:20;14.30;39.50
6841;DHT22;3458;53.678;14.080;2023-05-10T03:05:46;14.30;39.60
6841;DHT22;3458;53.678;14.080;2023-05-10T03:08:12;14.20;39.60
6841;DHT22;3458;53.678;14.080;2023-05-10T03:10:45;14.20;39.70
6841;DHT22;3458;53.678;14.080;2023-05-10T03:13:28;14.20;39.70
6841;DHT22;3458;53.678;14.080;2023-05-10T03:16:10;14.20;39.80
6841;DHT22;3458;53.678;14.080;2023-05-10T03:18:43;14.20;39.80
6841;DHT22;3458;53.678;14.080;2023-05-10T03:21:11;14.20;40.00
6841;DHT22;3458;53.678;14.080;2023-05-10T03:24:07;14.20;40.10
6841;DHT22;3458;53.678;14.080;2023-05-10T03:26:30;14.20;40.00
6841;DHT22;3458;53.678;14.080;2023-05-10T03:28:55;14.10;40.10
6841;DHT22;3458;53.678;14.080;2023-05-10T03:31:24;14.10;40.20
6841;DHT22;3458;53.678;14.080;2023-05-10T03:33:50;14.10;40.30
6841;DHT22;3458;53.678;14.080;2023-05-10T03:36:16;14.00;40.40
6841;DHT22;3458;53.678;14.080;2023-05-10T03:38:42;14.00;41.00
6841;DHT22;3458;53.678;14.080;2023-05-10T03:41:07;14.00;40.50
6841;DHT22;3458;53.678;14.080;2023-05-10T03:43:33;14.00;40.60
6841;DHT22;3458;53.678;14.080;2023-05-10T03:45:58;14.00;40.50
6841;DHT22;3458;53.678;14.080;2023-05-10T03:48:24;14.00;40.60
6841;DHT22;3458;53.678;14.080;2023-05-10T03:50:49;14.00;40.80
6841;DHT22;3458;53.678;14.080;2023-05-10T03:53:15;14.00;40.80
6841;DHT22;3458;53.678;14.080;2023-05-10T03:55:41;14.00;40.70
6841;DHT22;3458;53.678;14.080;2023-05-10T03:58:10;14.00;40.60
6841;DHT22;3458;53.678;14.080;2023-05-10T04:00:36;14.00;40.80
6841;DHT22;3458;53.678;14.080;2023-05-10T04:03:02;13.90;41.40
6841;DHT22;3458;53.678;14.080;2023-05-10T04:05:27;13.90;40.90
6841;DHT22;3458;53.678;14.080;2023-05-10T04:07:53;14.00;41.00
6841;DHT22;3458;53.678;14.080;2023-05-10T04:10:18;13.90;41.10
6841;DHT22;3458;53.678;14.080;2023-05-10T04:12:44;13.90;41.00
6841;DHT22;3458;53.678;14.080;2023-05-10T04:15:10;13.90;41.20
6841;DHT22;3458;53.678;14.080;2023-05-10T04:17:35;14.00;41.20
6841;DHT22;3458;53.678;14.080;2023-05-10T04:20:01;14.00;41.20
6841;DHT22;3458;53.678;14.080;2023-05-10T04:22:27;13.90;41.20
6841;DHT22;3458;53.678;14.080;2023-05-10T04:24:54;13.90;41.30
6841;DHT22;3458;53.678;14.080;2023-05-10T04:27:19;13.90;41.40
6841;DHT22;3458;53.678;14.080;2023-05-10T04:29:45;13.90;41.40
6841;DHT22;3458;53.678;14.080;2023-05-10T04:32:10;13.90;41.50
6841;DHT22;3458;53.678;14.080;2023-05-10T04:34:36;13.90;41.50
6841;DHT22;3458;53.678;14.080;2023-05-10T04:37:02;13.90;41.80
6841;DHT22;3458;53.678;14.080;2023-05-10T04:39:28;13.90;41.90
6841;DHT22;3458;53.678;14.080;2023-05-10T04:41:53;13.90;41.90
6841;DHT22;3458;53.678;14.080;2023-05-10T04:44:18;13.90;42.00
6841;DHT22;3458;53.678;14.080;2023-05-10T04:46:44;13.90;42.10
6841;DHT22;3458;53.678;14.080;2023-05-10T04:49:09;13.80;42.00
6841;DHT22;3458;53.678;14.080;2023-05-10T04:51:35;13.90;42.90
6841;DHT22;3458;53.678;14.080;2023-05-10T04:54:00;13.90;42.90
6841;DHT22;3458;53.678;14.080;2023-05-10T04:56:26;14.00;42.70
6841;DHT22;3458;53.678;14.080;2023-05-10T04:58:51;14.10;42.60
6841;DHT22;3458;53.678;14.080;2023-05-10T05:01:17;14.10;42.30
6841;DHT22;3458;53.678;14.080;2023-05-10T05:03:42;14.10;42.20
6841;DHT22;3458;53.678;14.080;2023-05-10T05:06:08;14.10;42.10
6841;DHT22;3458;53.678;14.080;2023-05-10T05:08:33;14.20;42.10
6841;DHT22;3458;53.678;14.080;2023-05-10T05:10:59;14.20;42.20
6841;DHT22;3458;53.678;14.080;2023-05-10T05:13:24;14.20;42.10
6841;DHT22;3458;53.678;14.080;2023-05-10T05:15:50;14.30;42.10
6841;DHT22;3458;53.678;14.080;2023-05-10T05:18:15;14.30;42.00
6841;DHT22;3458;53.678;14.080;2023-05-10T05:20:41;14.30;41.90
6841;DHT22;3458;53.678;14.080;2023-05-10T05:23:06;14.30;41.90
6841;DHT22;3458;53.678;14.080;2023-05-10T05:25:32;14.30;41.90
6841;DHT22;3458;53.678;14.080;2023-05-10T05:27:57;14.30;41.90
6841;DHT22;3458;53.678;14.080;2023-05-10T05:30:23;14.30;42.00
6841;DHT22;3458;53.678;14.080;2023-05-10T05:32:48;14.30;41.90
6841;DHT22;3458;53.678;14.080;2023-05-10T05:35:14;14.30;41.90
6841;DHT22;3458;53.678;14.080;2023-05-10T05:37:39;14.30;41.90
6841;DHT22;3458;53.678;14.080;2023-05-10T05:40:05;14.20;42.00
6841;DHT22;3458;53.678;14.080;2023-05-10T05:42:31;14.10;41.90
6841;DHT22;3458;53.678;14.080;2023-05-10T05:44:57;14.20;42.20
6841;DHT22;3458;53.678;14.080;2023-05-10T05:47:22;14.20;42.40
6841;DHT22;3458;53.678;14.080;2023-05-10T05:49:48;14.30;42.40
6841;DHT22;3458;53.678;14.080;2023-05-10T05:52:13;14.20;42.30
6841;DHT22;3458;53.678;14.080;2023-05-10T05:54:39;14.20;42.60
6841;DHT22;3458;53.678;14.080;2023-05-10T05:57:05;14.20;42.60
6841;DHT22;3458;53.678;14.080;2023-05-10T05:59:30;14.20;42.70
6841;DHT22;3458;53.678;14.080;2023-05-10T06:01:56;14.20;42.40
6841;DHT22;3458;53.678;14.080;2023-05-10T06:04:21;14.10;42.50
6841;DHT22;3458;53.678;14.080;2023-05-10T06:06:47;14.10;42.60
6841;DHT22;3458;53.678;14.080;2023-05-10T06:09:12;14.20;42.70
6841;DHT22;3458;53.678;14.080;2023-05-10T06:11:38;14.20;42.70
6841;DHT22;3458;53.678;14.080;2023-05-10T06:14:04;14.20;42.70
6841;DHT22;3458;53.678;14.080;2023-05-10T06:16:32;14.20;42.90
6841;DHT22;3458;53.678;14.080;2023-05-10T06:18:57;14.30;43.00
6841;DHT22;3458;53.678;14.080;2023-05-10T06:21:23;14.30;42.80
6841;DHT22;3458;53.678;14.080;2023-05-10T06:23:48;14.30;42.60
6841;DHT22;3458;53.678;14.080;2023-05-10T06:26:14;14.30;42.90
6841;DHT22;3458;53.678;14.080;2023-05-10T06:28:39;14.30;43.00
6841;DHT22;3458;53.678;14.080;2023-05-10T06:31:06;14.40;43.10
6841;DHT22;3458;53.678;14.080;2023-05-10T06:33:32;14.40;43.00
6841;DHT22;3458;53.678;14.080;2023-05-10T06:35:57;14.50;43.10
6841;DHT22;3458;53.678;14.080;2023-05-10T06:38:23;14.60;43.40
6841;DHT22;3458;53.678;14.080;2023-05-10T06:40:49;14.60;43.30
6841;DHT22;3458;53.678;14.080;2023-05-10T06:43:14;14.60;42.90
6841;DHT22;3458;53.678;14.080;2023-05-10T06:45:40;14.50;42.90
6841;DHT22;3458;53.678;14.080;2023-05-10T06:48:06;14.60;43.00
6841;DHT22;3458;53.678;14.080;2023-05-10T06:50:32;14.60;43.00
6841;DHT22;3458;53.678;14.080;2023-05-10T06:52:57;14.70;43.20
6841;DHT22;3458;53.678;14.080;2023-05-10T06:55:23;14.70;42.90
6841;DHT22;3458;53.678;14.080;2023-05-10T06:57:48;14.70;42.80
6841;DHT22;3458;53.678;14.080;2023-05-10T07:00:14;14.70;42.90
6841;DHT22;3458;53.678;14.080;2023-05-10T07:02:40;14.80;43.00
6841;DHT22;3458;53.678;14.080;2023-05-10T07:05:06;14.80;42.90
6841;DHT22;3458;53.678;14.080;2023-05-10T07:07:31;14.90;43.00
6841;DHT22;3458;53.678;14.080;2023-05-10T07:09:57;14.90;42.90
6841;DHT22;3458;53.678;14.080;2023-05-10T07:12:23;14.90;42.80
6841;DHT22;3458;53.678;14.080;2023-05-10T07:14:49;15.00;43.00
6841;DHT22;3458;53.678;14.080;2023-05-10T07:17:14;15.00;43.00
6841;DHT22;3458;53.678;14.080;2023-05-10T07:19:40;15.10;43.30
6841;DHT22;3458;53.678;14.080;2023-05-10T07:22:06;15.10;43.20
6841;DHT22;3458;53.678;14.080;2023-05-10T07:24:32;15.20;43.40
6841;DHT22;3458;53.678;14.080;2023-05-10T07:26:58;15.30;43.40
6841;DHT22;3458;53.678;14.080;2023-05-10T07:29:23;15.30;43.30
6841;DHT22;3458;53.678;14.080;2023-05-10T07:31:49;15.40;43.40
6841;DHT22;3458;53.678;14.080;2023-05-10T07:34:14;15.50;43.20
6841;DHT22;3458;53.678;14.080;2023-05-10T07:36:40;15.50;43.00
6841;DHT22;3458;53.678;14.080;2023-05-10T07:39:05;15.50;43.20
6841;DHT22;3458;53.678;14.080;2023-05-10T07:41:31;15.60;43.30
6841;DHT22;3458;53.678;14.080;2023-05-10T07:43:56;15.60;42.80
6841;DHT22;3458;53.678;14.080;2023-05-10T07:46:22;15.60;42.80
6841;DHT22;3458;53.678;14.080;2023-05-10T07:48:47;15.70;43.10
6841;DHT22;3458;53.678;14.080;2023-05-10T07:51:13;15.70;43.20
6841;DHT22;3458;53.678;14.080;2023-05-10T07:53:38;15.80;43.00
6841;DHT22;3458;53.678;14.080;2023-05-10T07:58:55;15.80;42.70
6841;DHT22;3458;53.678;14.080;2023-05-10T08:01:20;15.80;42.90
6841;DHT22;3458;53.678;14.080;2023-05-10T08:03:46;15.90;43.10
6841;DHT22;3458;53.678;14.080;2023-05-10T08:06:12;15.90;42.80
6841;DHT22;3458;53.678;14.080;2023-05-10T08:08:37;15.90;42.80
6841;DHT22;3458;53.678;14.080;2023-05-10T08:11:03;16.00;43.10
6841;DHT22;3458;53.678;14.080;2023-05-10T08:13:29;16.00;43.00
6841;DHT22;3458;53.678;14.080;2023-05-10T08:15:54;16.10;43.40
6841;DHT22;3458;53.678;14.080;2023-05-10T08:18:20;16.20;43.20
6841;DHT22;3458;53.678;14.080;2023-05-10T08:20:45;16.20;42.60
6841;DHT22;3458;53.678;14.080;2023-05-10T08:23:14;16.20;43.30
6841;DHT22;3458;53.678;14.080;2023-05-10T08:25:39;16.40;43.20
6841;DHT22;3458;53.678;14.080;2023-05-10T08:28:05;16.40;43.00
6841;DHT22;3458;53.678;14.080;2023-05-10T08:30:30;16.50;42.90
6841;DHT22;3458;53.678;14.080;2023-05-10T08:32:56;16.50;42.60
6841;DHT22;3458;53.678;14.080;2023-05-10T08:35:21;16.50;42.80
6841;DHT22;3458;53.678;14.080;2023-05-10T08:37:47;16.60;42.60
6841;DHT22;3458;53.678;14.080;2023-05-10T08:40:14;16.60;42.50
6841;DHT22;3458;53.678;14.080;2023-05-10T08:42:41;16.70;43.50
6841;DHT22;3458;53.678;14.080;2023-05-10T08:45:07;16.80;43.30
6841;DHT22;3458;53.678;14.080;2023-05-10T08:47:36;16.90;43.00
6841;DHT22;3458;53.678;14.080;2023-05-10T08:50:03;16.90;43.00
6841;DHT22;3458;53.678;14.080;2023-05-10T08:52:30;17.00;43.40
6841;DHT22;3458;53.678;14.080;2023-05-10T08:54:56;17.10;43.30
6841;DHT22;3458;53.678;14.080;2023-05-10T08:57:22;17.20;43.00
6841;DHT22;3458;53.678;14.080;2023-05-10T08:59:47;17.20;42.40
6841;DHT22;3458;53.678;14.080;2023-05-10T09:02:14;17.30;42.60
6841;DHT22;3458;53.678;14.080;2023-05-10T09:04:39;17.30;42.50
6841;DHT22;3458;53.678;14.080;2023-05-10T09:07:06;17.40;42.60
6841;DHT22;3458;53.678;14.080;2023-05-10T09:09:33;17.50;42.00
6841;DHT22;3458;53.678;14.080;2023-05-10T09:11:59;17.50;41.80
6841;DHT22;3458;53.678;14.080;2023-05-10T09:14:25;17.60;42.20
6841;DHT22;3458;53.678;14.080;2023-05-10T09:16:51;17.60;42.10
6841;DHT22;3458;53.678;14.080;2023-05-10T09:19:16;17.70;41.50
6841;DHT22;3458;53.678;14.080;2023-05-10T09:21:43;17.80;41.00
6841;DHT22;3458;53.678;14.080;2023-05-10T09:24:09;17.80;40.90
6841;DHT22;3458;53.678;14.080;2023-05-10T09:26:35;17.90;41.00
6841;DHT22;3458;53.678;14.080;2023-05-10T09:29:01;17.90;40.60
6841;DHT22;3458;53.678;14.080;2023-05-10T09:31:44;18.00;40.20
6841;DHT22;3458;53.678;14.080;2023-05-10T09:34:29;18.10;40.00
6841;DHT22;3458;53.678;14.080;2023-05-10T09:37:00;18.20;39.90
6841;DHT22;3458;53.678;14.080;2023-05-10T09:39:34;18.20;40.40
6841;DHT22;3458;53.678;14.080;2023-05-10T09:42:03;18.30;40.60
6841;DHT22;3458;53.678;14.080;2023-05-10T09:44:29;18.40;39.00
6841;DHT22;3458;53.678;14.080;2023-05-10T09:46:55;18.40;39.30
6841;DHT22;3458;53.678;14.080;2023-05-10T09:49:21;18.50;39.40
6841;DHT22;3458;53.678;14.080;2023-05-10T09:51:47;18.60;39.00
6841;DHT22;3458;53.678;14.080;2023-05-10T09:54:16;18.60;38.90
6841;DHT22;3458;53.678;14.080;2023-05-10T09:56:42;18.70;39.70
6841;DHT22;3458;53.678;14.080;2023-05-10T09:59:11;18.80;41.20
6841;DHT22;3458;53.678;14.080;2023-05-10T10:01:37;19.00;39.40
6841;DHT22;3458;53.678;14.080;2023-05-10T10:04:05;19.00;39.50
6841;DHT22;3458;53.678;14.080;2023-05-10T10:06:38;19.10;39.40
6841;DHT22;3458;53.678;14.080;2023-05-10T10:09:05;19.20;40.50
6841;DHT22;3458;53.678;14.080;2023-05-10T10:11:31;19.30;39.50
6841;DHT22;3458;53.678;14.080;2023-05-10T10:13:58;19.40;39.80
6841;DHT22;3458;53.678;14.080;2023-05-10T10:16:24;19.60;39.50
6841;DHT22;3458;53.678;14.080;2023-05-10T10:18:50;19.60;39.30
6841;DHT22;3458;53.678;14.080;2023-05-10T10:21:15;19.70;39.20
6841;DHT22;3458;53.678;14.080;2023-05-10T10:23:41;19.70;38.70
6841;DHT22;3458;53.678;14.080;2023-05-10T10:26:08;19.70;38.60
6841;DHT22;3458;53.678;14.080;2023-05-10T10:28:49;19.70;39.40
6841;DHT22;3458;53.678;14.080;2023-05-10T10:34:28;19.90;36.90
6841;DHT22;3458;53.678;14.080;2023-05-10T10:36:56;19.90;35.70
6841;DHT22;3458;53.678;14.080;2023-05-10T10:39:22;20.00;37.00
6841;DHT22;3458;53.678;14.080;2023-05-10T10:41:51;20.00;37.60
6841;DHT22;3458;53.678;14.080;2023-05-10T10:52:36;20.40;35.50
6841;DHT22;3458;53.678;14.080;2023-05-10T10:55:07;20.40;35.10
6841;DHT22;3458;53.678;14.080;2023-05-10T10:57:51;20.50;35.10
6841;DHT22;3458;53.678;14.080;2023-05-10T11:00:37;20.50;34.60
6841;DHT22;3458;53.678;14.080;2023-05-10T11:03:10;20.60;36.20
6841;DHT22;3458;53.678;14.080;2023-05-10T11:05:44;20.70;35.10
6841;DHT22;3458;53.678;14.080;2023-05-10T11:08:13;20.70;34.80
6841;DHT22;3458;53.678;14.080;2023-05-10T11:10:39;20.80;34.80
6841;DHT22;3458;53.678;14.080;2023-05-10T11:13:06;20.90;34.70
6841;DHT22;3458;53.678;14.080;2023-05-10T11:15:37;21.10;34.30
6841;DHT22;3458;53.678;14.080;2023-05-10T11:18:28;21.10;33.70
6841;DHT22;3458;53.678;14.080;2023-05-10T11:20:58;21.20;33.80
6841;DHT22;3458;53.678;14.080;2023-05-10T11:23:33;21.30;34.30
6841;DHT22;3458;53.678;14.080;2023-05-10T11:26:12;21.40;34.40
6841;DHT22;3458;53.678;14.080;2023-05-10T11:28:42;21.60;34.70
6841;DHT22;3458;53.678;14.080;2023-05-10T11:31:08;21.70;34.40
6841;DHT22;3458;53.678;14.080;2023-05-10T11:33:43;21.70;33.60
6841;DHT22;3458;53.678;14.080;2023-05-10T11:36:26;21.80;34.00
6841;DHT22;3458;53.678;14.080;2023-05-10T11:38:52;22.00;33.70
6841;DHT22;3458;53.678;14.080;2023-05-10T11:41:19;22.10;33.50
6841;DHT22;3458;53.678;14.080;2023-05-10T11:43:49;22.30;33.70
6841;DHT22;3458;53.678;14.080;2023-05-10T11:46:15;22.50;33.40
6841;DHT22;3458;53.678;14.080;2023-05-10T11:48:42;22.60;32.80
6841;DHT22;3458;53.678;14.080;2023-05-10T11:51:08;22.70;33.20
6841;DHT22;3458;53.678;14.080;2023-05-10T11:53:35;23.10;32.80
6841;DHT22;3458;53.678;14.080;2023-05-10T11:56:08;23.50;32.40
6841;DHT22;3458;53.678;14.080;2023-05-10T11:58:34;23.80;31.00
6841;DHT22;3458;53.678;14.080;2023-05-10T12:01:01;24.30;30.80
6841;DHT22;3458;53.678;14.080;2023-05-10T12:03:27;24.80;29.90
6841;DHT22;3458;53.678;14.080;2023-05-10T12:05:54;25.30;29.20
6841;DHT22;3458;53.678;14.080;2023-05-10T12:08:21;26.00;28.80
6841;DHT22;3458;53.678;14.080;2023-05-10T12:10:47;26.90;28.00
6841;DHT22;3458;53.678;14.080;2023-05-10T12:13:14;28.10;26.90
6841;DHT22;3458;53.678;14.080;2023-05-10T12:15:41;29.10;25.40
6841;DHT22;3458;53.678;14.080;2023-05-10T12:18:09;30.10;24.90
6841;DHT22;3458;53.678;14.080;2023-05-10T12:20:35;30.70;24.50
6841;DHT22;3458;53.678;14.080;2023-05-10T12:23:01;31.30;23.60
6841;DHT22;3458;53.678;14.080;2023-05-10T12:25:33;31.60;23.40
6841;DHT22;3458;53.678;14.080;2023-05-10T12:27:59;31.80;22.20
6841;DHT22;3458;53.678;14.080;2023-05-10T12:30:30;31.70;22.00
6841;DHT22;3458;53.678;14.080;2023-05-10T12:33:07;31.60;22.20
6841;DHT22;3458;53.678;14.080;2023-05-10T12:35:33;31.60;22.50
6841;DHT22;3458;53.678;14.080;2023-05-10T12:38:28;31.70;21.90
6841;DHT22;3458;53.678;14.080;2023-05-10T12:41:05;31.80;22.20
6841;DHT22;3458;53.678;14.080;2023-05-10T12:43:32;31.80;22.10
6841;DHT22;3458;53.678;14.080;2023-05-10T12:45:58;32.00;21.60
6841;DHT22;3458;53.678;14.080;2023-05-10T12:48:24;32.00;21.40
6841;DHT22;3458;53.678;14.080;2023-05-10T12:50:49;31.90;21.00
6841;DHT22;3458;53.678;14.080;2023-05-10T12:53:15;31.90;21.30
6841;DHT22;3458;53.678;14.080;2023-05-10T12:55:41;32.10;21.40
6841;DHT22;3458;53.678;14.080;2023-05-10T12:58:07;32.20;21.30
6841;DHT22;3458;53.678;14.080;2023-05-10T13:00:32;32.10;21.00
6841;DHT22;3458;53.678;14.080;2023-05-10T13:02:58;32.20;21.30
6841;DHT22;3458;53.678;14.080;2023-05-10T13:05:23;32.30;21.20
6841;DHT22;3458;53.678;14.080;2023-05-10T13:07:49;32.00;20.90
6841;DHT22;3458;53.678;14.080;2023-05-10T13:10:14;32.00;21.20
6841;DHT22;3458;53.678;14.080;2023-05-10T13:12:40;32.10;21.00
6841;DHT22;3458;53.678;14.080;2023-05-10T13:15:06;32.50;20.80
6841;DHT22;3458;53.678;14.080;2023-05-10T13:17:32;32.60;20.40
6841;DHT22;3458;53.678;14.080;2023-05-10T13:19:57;32.50;20.00
6841;DHT22;3458;53.678;14.080;2023-05-10T13:22:23;32.70;20.00
6841;DHT22;3458;53.678;14.080;2023-05-10T13:24:48;33.00;20.00
6841;DHT22;3458;53.678;14.080;2023-05-10T13:27:14;33.20;20.10
6841;DHT22;3458;53.678;14.080;2023-05-10T13:29:39;33.50;20.20
6841;DHT22;3458;53.678;14.080;2023-05-10T13:32:05;33.70;19.90
6841;DHT22;3458;53.678;14.080;2023-05-10T13:34:30;33.90;19.40
6841;DHT22;3458;53.678;14.080;2023-05-10T13:36:56;34.20;19.30
6841;DHT22;3458;53.678;14.080;2023-05-10T13:39:22;34.30;19.20
6841;DHT22;3458;53.678;14.080;2023-05-10T13:41:47;34.60;19.10
6841;DHT22;3458;53.678;14.080;2023-05-10T13:44:14;34.70;18.10
6841;DHT22;3458;53.678;14.080;2023-05-10T13:46:40;34.30;17.20
6841;DHT22;3458;53.678;14.080;2023-05-10T13:49:06;34.30;17.40
6841;DHT22;3458;53.678;14.080;2023-05-10T13:51:33;34.30;17.60
6841;DHT22;3458;53.678;14.080;2023-05-10T13:53:58;34.40;17.10
6841;DHT22;3458;53.678;14.080;2023-05-10T13:56:24;34.90;17.30
6841;DHT22;3458;53.678;14.080;2023-05-10T13:58:49;35.60;17.00
6841;DHT22;3458;53.678;14.080;2023-05-10T14:01:15;36.00;16.60
6841;DHT22;3458;53.678;14.080;2023-05-10T14:03:40;36.30;16.40
6841;DHT22;3458;53.678;14.080;2023-05-10T14:06:06;36.80;16.20
6841;DHT22;3458;53.678;14.080;2023-05-10T14:08:33;37.30;15.60
6841;DHT22;3458;53.678;14.080;2023-05-10T14:10:58;37.50;14.90
6841;DHT22;3458;53.678;14.080;2023-05-10T14:13:24;38.10;15.00
6841;DHT22;3458;53.678;14.080;2023-05-10T14:15:50;38.60;14.60
6841;DHT22;3458;53.678;14.080;2023-05-10T14:18:15;39.00;14.40
6841;DHT22;3458;53.678;14.080;2023-05-10T14:20:41;39.30;14.40
6841;DHT22;3458;53.678;14.080;2023-05-10T14:23:06;39.80;13.90
6841;DHT22;3458;53.678;14.080;2023-05-10T14:25:32;39.60;13.80
6841;DHT22;3458;53.678;14.080;2023-05-10T14:27:58;40.10;14.30
6841;DHT22;3458;53.678;14.080;2023-05-10T14:30:24;40.40;13.90
6841;DHT22;3458;53.678;14.080;2023-05-10T14:32:49;40.50;13.80
6841;DHT22;3458;53.678;14.080;2023-05-10T14:35:15;40.60;13.60
6841;DHT22;3458;53.678;14.080;2023-05-10T14:37:40;40.90;13.50
6841;DHT22;3458;53.678;14.080;2023-05-10T14:40:06;41.20;13.20
6841;DHT22;3458;53.678;14.080;2023-05-10T14:42:32;41.20;13.20
6841;DHT22;3458;53.678;14.080;2023-05-10T14:44:57;41.40;13.40
6841;DHT22;3458;53.678;14.080;2023-05-10T14:47:23;40.90;13.00
6841;DHT22;3458;53.678;14.080;2023-05-10T14:49:49;40.70;13.10
6841;DHT22;3458;53.678;14.080;2023-05-10T14:52:14;40.40;12.80
6841;DHT22;3458;53.678;14.080;2023-05-10T14:54:40;40.60;12.70
6841;DHT22;3458;53.678;14.080;2023-05-10T14:57:06;41.00;12.90
6841;DHT22;3458;53.678;14.080;2023-05-10T14:59:32;41.10;13.00
6841;DHT22;3458;53.678;14.080;2023-05-10T15:01:57;41.30;13.10
6841;DHT22;3458;53.678;14.080;2023-05-10T15:04:23;41.30;12.90
6841;DHT22;3458;53.678;14.080;2023-05-10T15:06:48;41.20;12.90
6841;DHT22;3458;53.678;14.080;2023-05-10T15:09:14;41.10;13.00
6841;DHT22;3458;53.678;14.080;2023-05-10T15:11:40;41.30;12.80
6841;DHT22;3458;53.678;14.080;2023-05-10T15:14:06;41.50;13.00
6841;DHT22;3458;53.678;14.080;2023-05-10T15:16:31;41.60;12.60
6841;DHT22;3458;53.678;14.080;2023-05-10T15:18:57;41.50;12.50
6841;DHT22;3458;53.678;14.080;2023-05-10T15:21:22;41.30;12.80
6841;DHT22;3458;53.678;14.080;2023-05-10T15:23:48;41.40;13.40
6841;DHT22;3458;53.678;14.080;2023-05-10T15:26:13;41.40;12.60
6841;DHT22;3458;53.678;14.080;2023-05-10T15:28:39;41.30;13.00
6841;DHT22;3458;53.678;14.080;2023-05-10T15:31:04;41.00;12.50
6841;DHT22;3458;53.678;14.080;2023-05-10T15:33:30;41.10;12.80
6841;DHT22;3458;53.678;14.080;2023-05-10T15:35:55;41.20;12.50
6841;DHT22;3458;53.678;14.080;2023-05-10T15:38:21;40.70;12.50
6841;DHT22;3458;53.678;14.080;2023-05-10T15:40:46;40.80;12.70
6841;DHT22;3458;53.678;14.080;2023-05-10T15:43:12;40.70;13.20
6841;DHT22;3458;53.678;14.080;2023-05-10T15:45:37;40.80;12.80
6841;DHT22;3458;53.678;14.080;2023-05-10T15:48:03;40.20;12.40
6841;DHT22;3458;53.678;14.080;2023-05-10T15:50:29;39.70;12.70
6841;DHT22;3458;53.678;14.080;2023-05-10T15:52:54;39.50;12.70
6841;DHT22;3458;53.678;14.080;2023-05-10T15:55:20;39.10;13.20
6841;DHT22;3458;53.678;14.080;2023-05-10T15:57:45;38.80;13.10
6841;DHT22;3458;53.678;14.080;2023-05-10T16:00:13;38.50;13.30
6841;DHT22;3458;53.678;14.080;2023-05-10T16:02:39;38.10;13.70
6841;DHT22;3458;53.678;14.080;2023-05-10T16:05:05;37.50;14.00
6841;DHT22;3458;53.678;14.080;2023-05-10T16:07:31;37.40;14.30